createdAt,value
2022-10-12T00:02:42.287Z,98866.47
2022-10-12T00:05:48.883Z,98858.69
2022-10-12T00:08:56.493Z,98862.47
2022-10-12T00:12:02.450Z,98865.75
2022-10-12T00:15:11.965Z,98860.34
2022-10-12T00:18:20.919Z,98863.59
2022-10-12T00:21:28.491Z,98868.16
2022-10-12T00:24:37.467Z,98863.88
2022-10-12T00:27:49.417Z,98860.66
2022-10-12T00:31:01.629Z,98857.94
2022-10-12T00:34:10.461Z,98864.94
2022-10-12T00:37:23.276Z,98852.56
2022-10-12T00:40:32.823Z,98855.78
2022-10-12T00:43:42.843Z,98857.13
2022-10-12T00:46:57.459Z,98849.63
2022-10-12T00:50:14.275Z,98843.16
2022-10-12T00:53:31.613Z,98853.06
2022-10-12T00:56:44.841Z,98851.47
2022-10-12T00:59:56.721Z,98861.41
2022-10-12T01:03:13.146Z,98852.81
2022-10-12T01:06:25.264Z,98865.16
2022-10-12T01:09:35.722Z,98859.00
2022-10-12T01:12:46.461Z,98856.59
2022-10-12T01:16:01.710Z,98861.66
2022-10-12T01:19:25.717Z,98860.56
2022-10-12T01:22:39.433Z,98859.78
2022-10-12T01:26:02.729Z,98860.84
2022-10-12T01:29:28.198Z,98859.22
2022-10-12T01:32:40.124Z,98849.78
2022-10-12T01:35:55.934Z,98858.41
2022-10-12T01:39:09.125Z,98846.28
2022-10-12T01:42:20.715Z,98856.22
2022-10-12T01:45:27.806Z,98851.41
2022-10-12T01:48:36.469Z,98849.78
2022-10-12T01:51:59.627Z,98850.31
2022-10-12T01:55:25.608Z,98848.66
2022-10-12T01:58:45.286Z,98847.06
2022-10-12T02:02:00.415Z,98845.69
2022-10-12T02:05:14.610Z,98845.13
2022-10-12T02:08:26.897Z,98844.31
2022-10-12T02:11:35.229Z,98842.13
2022-10-12T02:14:46.101Z,98837.81
2022-10-12T02:17:54.967Z,98848.03
2022-10-12T02:21:03.105Z,98838.63
2022-10-12T02:24:13.874Z,98835.09
2022-10-12T02:30:55.258Z,98831.88
2022-10-12T02:37:47.561Z,98831.38
2022-10-12T02:41:03.619Z,98835.38
2022-10-12T02:44:17.906Z,98837.28
2022-10-12T02:47:34.776Z,98835.16
2022-10-12T02:54:13.794Z,98828.75
2022-10-12T03:01:17.310Z,98816.97
2022-10-12T03:04:34.302Z,98823.19
2022-10-12T03:08:00.229Z,98829.94
2022-10-12T03:15:17.211Z,98834.50
2022-10-12T03:18:32.492Z,98833.69
2022-10-12T03:22:10.105Z,98832.91
2022-10-12T03:25:31.248Z,98828.59
2022-10-12T03:32:40.553Z,98831.84
2022-10-12T03:35:58.207Z,98823.78
2022-10-12T03:39:36.506Z,98828.06
2022-10-12T03:42:45.028Z,98828.88
2022-10-12T03:46:05.501Z,98830.50
2022-10-12T03:49:16.170Z,98825.13
2022-10-12T03:52:23.795Z,98830.75
2022-10-12T03:59:12.484Z,98824.59
2022-10-12T04:02:40.223Z,98832.13
2022-10-12T04:06:17.889Z,98835.56
2022-10-12T04:09:29.607Z,98831.28
2022-10-12T04:13:01.963Z,98834.47
2022-10-12T04:16:10.055Z,98832.03
2022-10-12T04:19:24.269Z,98837.91
2022-10-12T04:22:30.709Z,98834.69
2022-10-12T04:25:36.928Z,98836.81
2022-10-12T04:28:42.584Z,98844.03
2022-10-12T04:31:49.752Z,98832.75
2022-10-12T04:35:03.035Z,98845.44
2022-10-12T04:38:08.756Z,98840.88
2022-10-12T04:41:16.046Z,98841.97
2022-10-12T04:44:22.818Z,98840.09
2022-10-12T04:47:29.210Z,98842.25
2022-10-12T04:50:38.535Z,98848.16
2022-10-12T04:53:47.463Z,98847.38
2022-10-12T04:56:53.090Z,98846.28
2022-10-12T05:00:02.865Z,98843.59
2022-10-12T05:03:09.644Z,98844.69
2022-10-12T05:06:14.781Z,98850.59
2022-10-12T05:09:18.211Z,98848.72
2022-10-12T05:12:21.054Z,98844.44
2022-10-12T05:15:23.828Z,98849.31
2022-10-12T05:18:26.660Z,98850.91
2022-10-12T05:21:30.766Z,98846.06
2022-10-12T05:24:33.786Z,98852.81
2022-10-12T05:27:36.587Z,98853.06
2022-10-12T05:30:40.386Z,98845.81
2022-10-12T05:33:42.999Z,98843.66
2022-10-12T05:36:47.038Z,98839.38
2022-10-12T05:39:49.981Z,98840.44
2022-10-12T05:42:52.591Z,98838.03
2022-10-12T05:45:55.205Z,98838.59
2022-10-12T05:49:00.569Z,98847.72
2022-10-12T05:52:04.765Z,98848.00
2022-10-12T05:55:08.563Z,98856.88
2022-10-12T05:58:11.159Z,98854.44
2022-10-12T06:01:14.974Z,98857.13
2022-10-12T06:04:17.953Z,98859.84
2022-10-12T06:07:21.979Z,98860.91
2022-10-12T06:10:29.115Z,98863.34
2022-10-12T06:13:32.774Z,98861.72
2022-10-12T06:16:35.453Z,98853.91
2022-10-12T06:19:38.278Z,98858.19
2022-10-12T06:22:42.252Z,98851.47
2022-10-12T06:25:46.942Z,98854.44
2022-10-12T06:28:49.590Z,98855.50
2022-10-12T06:31:54.135Z,98855.78
2022-10-12T06:34:56.754Z,98857.66
2022-10-12T06:38:00.908Z,98857.13
2022-10-12T06:41:03.942Z,98861.41
2022-10-12T06:44:06.941Z,98871.09
2022-10-12T06:47:09.586Z,98868.94
2022-10-12T06:50:12.886Z,98860.38
2022-10-12T06:53:17.004Z,98865.19
2022-10-12T06:56:19.996Z,98864.38
2022-10-12T06:59:22.757Z,98869.22
2022-10-12T07:02:25.331Z,98871.38
2022-10-12T07:05:28.228Z,98873.50
2022-10-12T07:08:32.359Z,98863.28
2022-10-12T07:11:35.137Z,98863.81
2022-10-12T07:14:38.161Z,98866.22
2022-10-12T07:17:41.230Z,98871.84
2022-10-12T07:20:44.033Z,98870.53
2022-10-12T07:23:47.993Z,98875.41
2022-10-12T07:26:51.008Z,98873.22
2022-10-12T07:29:54.803Z,98871.31
2022-10-12T07:32:57.462Z,98869.13
2022-10-12T07:36:20.873Z,98869.41
2022-10-12T07:39:24.458Z,98862.38
2022-10-12T07:42:27.065Z,98869.06
2022-10-12T07:45:29.707Z,98868.75
2022-10-12T07:48:32.784Z,98866.59
2022-10-12T07:51:35.516Z,98868.44
2022-10-12T07:54:39.492Z,98865.16
2022-10-12T07:57:42.187Z,98859.22
2022-10-12T08:00:44.895Z,98861.59
2022-10-12T08:03:47.591Z,98870.50
2022-10-12T08:06:50.226Z,98868.28
2022-10-12T08:09:54.903Z,98870.94
2022-10-12T08:12:57.518Z,98868.75
2022-10-12T08:16:00.475Z,98874.38
2022-10-12T08:19:03.082Z,98869.50
2022-10-12T08:22:05.771Z,98875.09
2022-10-12T08:25:10.799Z,98879.06
2022-10-12T08:28:13.407Z,98876.06
2022-10-12T08:31:17.828Z,98877.13
2022-10-12T08:34:20.915Z,98878.44
2022-10-12T08:37:23.539Z,98876.47
2022-10-12T08:40:33.611Z,98877.50
2022-10-12T08:43:55.015Z,98871.72
2022-10-12T08:47:01.144Z,98873.28
2022-10-12T08:50:05.977Z,98874.03
2022-10-12T08:53:15.400Z,98867.75
2022-10-12T08:56:20.558Z,98862.75
2022-10-12T08:59:23.550Z,98862.88
2022-10-12T09:02:51.683Z,98857.59
2022-10-12T09:06:04.405Z,98852.34
2022-10-12T09:09:17.885Z,98849.31
2022-10-12T09:12:34.361Z,98856.56
2022-10-12T09:15:43.953Z,98854.28
2022-10-12T09:18:50.545Z,98862.56
2022-10-12T09:21:53.298Z,98863.09
2022-10-12T09:24:58.205Z,98867.16
2022-10-12T09:28:19.440Z,98867.75
2022-10-12T09:31:34.734Z,98870.22
2022-10-12T09:34:37.829Z,98871.63
2022-10-12T09:37:56.704Z,98871.78
2022-10-12T09:41:05.004Z,98877.56
2022-10-12T09:44:20.894Z,98885.59
2022-10-12T09:47:31.237Z,98884.47
2022-10-12T09:50:45.204Z,98883.69
2022-10-12T09:54:06.422Z,98881.84
2022-10-12T09:57:22.862Z,98882.97
2022-10-12T10:00:30.908Z,98878.50
2022-10-12T10:03:33.993Z,98876.88
2022-10-12T10:06:37.537Z,98880.91
2022-10-12T10:09:40.312Z,98876.44
2022-10-12T10:12:52.488Z,98877.78
2022-10-12T10:16:06.949Z,98887.47
2022-10-12T10:19:20.312Z,98882.28
2022-10-12T10:22:24.154Z,98879.31
2022-10-12T10:25:27.265Z,98879.75
2022-10-12T10:28:31.739Z,98878.13
2022-10-12T10:31:35.833Z,98874.03
2022-10-12T10:34:38.992Z,98870.31
2022-10-12T10:37:45.589Z,98873.75
2022-10-12T10:40:52.615Z,98877.78
2022-10-12T10:43:56.062Z,98878.50
2022-10-12T10:47:02.998Z,98875.47
2022-10-12T10:50:21.837Z,98882.63
2022-10-12T10:53:26.737Z,98879.31
2022-10-12T10:56:31.986Z,98868.94
2022-10-12T10:59:45.022Z,98871.50
2022-10-12T11:02:52.300Z,98866.53
2022-10-12T11:05:59.141Z,98865.84
2022-10-12T11:09:06.083Z,98861.13
2022-10-12T11:12:14.458Z,98867.56
2022-10-12T11:15:25.050Z,98865.78
2022-10-12T11:18:38.992Z,98864.91
2022-10-12T11:21:48.358Z,98862.19
2022-10-12T11:24:55.742Z,98855.94
2022-10-12T11:27:58.478Z,98863.53
2022-10-12T11:31:02.369Z,98855.94
2022-10-12T11:34:13.941Z,98855.84
2022-10-12T11:37:20.803Z,98849.22
2022-10-12T11:40:55.497Z,98843.44
2022-10-12T11:43:58.408Z,98844.16
2022-10-12T11:47:05.696Z,98839.75
2022-10-12T11:50:25.954Z,98838.56
2022-10-12T11:53:35.774Z,98835.75
2022-10-12T11:56:43.078Z,98831.34
2022-10-12T11:59:49.381Z,98829.97
2022-10-12T12:02:58.190Z,98822.22
2022-10-12T12:06:34.405Z,98826.38
2022-10-12T12:09:47.970Z,98818.25
2022-10-12T12:13:18.249Z,98818.13
2022-10-12T12:16:34.350Z,98811.72
2022-10-12T12:19:39.804Z,98806.47
2022-10-12T12:22:50.569Z,98805.28
2022-10-12T12:26:13.149Z,98802.19
2022-10-12T12:29:27.088Z,98793.75
2022-10-12T12:32:44.056Z,98791.03
2022-10-12T12:35:55.652Z,98791.13
2022-10-12T12:38:59.029Z,98786.63
2022-10-12T12:42:05.045Z,98788.63
2022-10-12T12:45:42.188Z,98793.25
2022-10-12T12:49:04.058Z,98792.38
2022-10-12T12:52:12.125Z,98792.16
2022-10-12T12:55:50.247Z,98789.00
2022-10-12T12:59:12.910Z,98787.69
2022-10-12T13:02:47.963Z,98781.56
2022-10-12T13:06:28.555Z,98772.88
2022-10-12T13:09:48.281Z,98776.78
2022-10-12T13:13:08.662Z,98775.47
2022-10-12T13:16:57.539Z,98775.31
2022-10-12T13:19:49.457Z,98767.81
2022-10-12T13:22:54.969Z,98768.41
2022-10-12T13:26:02.209Z,98765.09
2022-10-12T13:29:16.426Z,98763.97
2022-10-12T13:32:30.930Z,98763.28
2022-10-12T13:35:37.838Z,98765.09
2022-10-12T13:38:40.544Z,98759.91
2022-10-12T13:41:44.210Z,98757.78
2022-10-12T13:44:49.161Z,98754.56
2022-10-12T13:47:53.138Z,98750.44
2022-10-12T13:50:57.757Z,98757.09
2022-10-12T13:54:00.374Z,98754.19
2022-10-12T13:57:05.643Z,98759.03
2022-10-12T14:00:18.246Z,98759.31
2022-10-12T14:03:26.985Z,98750.69
2022-10-12T14:06:32.594Z,98748.97
2022-10-12T14:09:42.421Z,98740.63
2022-10-12T14:12:47.245Z,98747.59
2022-10-12T14:15:50.257Z,98744.59
2022-10-12T14:18:54.299Z,98742.44
2022-10-12T14:21:58.607Z,98735.66
2022-10-12T14:25:11.712Z,98735.66
2022-10-12T14:28:32.684Z,98737.59
2022-10-12T14:31:52.067Z,98729.22
2022-10-12T14:35:12.172Z,98736.47
2022-10-12T14:38:38.230Z,98736.69
2022-10-12T14:41:49.972Z,98733.59
2022-10-12T14:44:52.990Z,98744.34
2022-10-12T14:47:56.611Z,98744.44
2022-10-12T14:51:00.604Z,98736.44
2022-10-12T14:54:05.330Z,98739.00
2022-10-12T14:57:14.720Z,98733.28
2022-10-12T15:00:19.634Z,98733.97
2022-10-12T15:03:22.345Z,98730.81
2022-10-12T15:06:26.344Z,98724.38
2022-10-12T15:09:28.986Z,98727.50
2022-10-12T15:12:32.055Z,98725.78
2022-10-12T15:15:40.318Z,98732.09
2022-10-12T15:18:42.902Z,98731.59
2022-10-12T15:21:47.862Z,98735.50
2022-10-12T15:24:51.215Z,98729.41
2022-10-12T15:27:53.867Z,98722.47
2022-10-12T15:31:17.011Z,98729.59
2022-10-12T15:34:20.605Z,98728.09
2022-10-12T15:40:33.962Z,98729.38
2022-10-12T15:43:38.265Z,98731.88
2022-10-12T15:46:45.332Z,98723.53
2022-10-12T15:49:48.324Z,98731.16
2022-10-12T15:52:51.040Z,98729.31
2022-10-12T15:55:56.409Z,98718.06
2022-10-12T15:58:59.074Z,98716.56
2022-10-12T16:02:01.741Z,98714.81
2022-10-12T16:05:04.977Z,98710.19
2022-10-12T16:08:07.889Z,98714.13
2022-10-12T16:11:16.073Z,98713.00
2022-10-12T16:14:18.745Z,98704.00
2022-10-12T16:17:21.347Z,98709.34
2022-10-12T16:20:24.558Z,98721.06
2022-10-12T16:23:30.301Z,98720.09
2022-10-12T16:26:34.629Z,98722.38
2022-10-12T16:29:37.347Z,98725.81
2022-10-12T16:32:40.025Z,98726.72
2022-10-12T16:35:42.881Z,98721.19
2022-10-12T16:38:45.828Z,98723.19
2022-10-12T16:41:49.823Z,98727.41
2022-10-12T16:44:52.429Z,98729.91
2022-10-12T16:47:55.051Z,98718.06
2022-10-12T16:50:57.641Z,98725.19
2022-10-12T16:54:00.774Z,98725.00
2022-10-12T16:57:05.279Z,98732.34
2022-10-12T17:00:10.732Z,98733.53
2022-10-12T17:03:13.794Z,98730.31
2022-10-12T17:06:16.469Z,98729.28
2022-10-12T17:09:19.140Z,98731.50
2022-10-12T17:12:23.555Z,98725.63
2022-10-12T17:15:26.315Z,98722.19
2022-10-12T17:18:28.899Z,98724.13
2022-10-12T17:21:31.662Z,98729.84
2022-10-12T17:24:37.271Z,98722.88
2022-10-12T17:27:41.236Z,98731.25
2022-10-12T17:30:44.121Z,98728.31
2022-10-12T17:33:46.825Z,98727.53
2022-10-12T17:36:50.712Z,98733.47
2022-10-12T17:39:53.701Z,98728.69
2022-10-12T17:42:57.678Z,98734.63
2022-10-12T17:46:00.354Z,98738.69
2022-10-12T17:49:03.747Z,98741.94
2022-10-12T17:52:06.558Z,98731.22
2022-10-12T17:55:29.504Z,98738.81
2022-10-12T17:58:34.386Z,98741.50
2022-10-12T18:01:38.493Z,98742.88
2022-10-12T18:04:41.137Z,98745.03
2022-10-12T18:07:43.805Z,98746.69
2022-10-12T18:10:46.419Z,98746.97
2022-10-12T18:13:51.834Z,98745.13
2022-10-12T18:16:54.448Z,98743.19
2022-10-12T18:19:57.100Z,98735.94
2022-10-12T18:22:59.730Z,98737.84
2022-10-12T18:26:04.230Z,98743.25
2022-10-12T18:29:08.217Z,98743.00
2022-10-12T18:32:11.356Z,98743.00
2022-10-12T18:35:14.342Z,98740.59
2022-10-12T18:38:17.406Z,98752.44
2022-10-12T18:41:22.872Z,98756.22
2022-10-12T18:44:26.866Z,98754.59
2022-10-12T18:47:29.521Z,98759.19
2022-10-12T18:50:32.253Z,98750.34
2022-10-12T18:53:36.009Z,98755.19
2022-10-12T18:56:38.658Z,98754.09
2022-10-12T18:59:43.035Z,98751.16
2022-10-12T19:02:45.647Z,98749.56
2022-10-12T19:05:48.269Z,98757.59
2022-10-12T19:08:51.343Z,98760.28
2022-10-12T19:11:53.985Z,98760.84
2022-10-12T19:14:58.209Z,98758.97
2022-10-12T19:18:01.197Z,98760.03
2022-10-12T19:21:06.305Z,98756.03
2022-10-12T19:24:12.033Z,98758.41
2022-10-12T19:27:14.686Z,98766.22
2022-10-12T19:30:18.843Z,98755.19
2022-10-12T19:33:21.534Z,98763.53
2022-10-12T19:36:24.314Z,98758.72
2022-10-12T19:39:27.192Z,98753.59
2022-10-12T19:42:29.838Z,98760.88
2022-10-12T19:45:38.674Z,98758.44
2022-10-12T19:48:42.825Z,98757.09
2022-10-12T19:51:45.661Z,98758.16
2022-10-12T19:54:48.261Z,98762.47
2022-10-12T19:57:50.934Z,98759.78
2022-10-12T20:01:01.304Z,98760.84
2022-10-12T20:04:07.057Z,98759.75
2022-10-12T20:07:09.692Z,98754.66
2022-10-12T20:10:12.331Z,98757.91
2022-10-12T20:13:15.075Z,98764.34
2022-10-12T20:16:20.405Z,98765.41
2022-10-12T20:19:23.058Z,98761.09
2022-10-12T20:22:25.653Z,98764.59
2022-10-12T20:25:28.349Z,98771.03
2022-10-12T20:28:31.096Z,98763.25
2022-10-12T20:31:35.258Z,98769.41
2022-10-12T20:34:37.925Z,98773.47
2022-10-12T20:37:40.537Z,98770.25
2022-10-12T20:40:43.225Z,98766.50
2022-10-12T20:43:46.108Z,98768.63
2022-10-12T20:46:51.705Z,98758.16
2022-10-12T20:49:54.730Z,98761.94
2022-10-12T20:52:57.347Z,98761.13
2022-10-12T20:56:00.013Z,98758.97
2022-10-12T20:59:02.881Z,98763.53
2022-10-12T21:02:06.862Z,98755.47
2022-10-12T21:05:10.298Z,98756.28
2022-10-12T21:08:12.926Z,98758.44
2022-10-12T21:11:15.572Z,98752.50
2022-10-12T21:14:18.276Z,98757.34
2022-10-12T21:17:22.255Z,98756.00
2022-10-12T21:20:24.937Z,98753.06
2022-10-12T21:23:28.422Z,98745.25
2022-10-12T21:26:31.839Z,98753.31
2022-10-12T21:29:34.453Z,98749.81
2022-10-12T21:32:38.439Z,98753.56
2022-10-12T21:35:41.316Z,98750.38
2022-10-12T21:38:44.701Z,98744.72
2022-10-12T21:41:47.354Z,98744.97
2022-10-12T21:44:50.166Z,98743.94
2022-10-12T21:47:54.094Z,98741.78
2022-10-12T21:50:57.014Z,98739.34
2022-10-12T21:53:59.713Z,98744.44
2022-10-12T21:57:02.389Z,98744.72
2022-10-12T22:00:06.403Z,98741.22
2022-10-12T22:03:10.424Z,98741.75
2022-10-12T22:06:14.418Z,98746.31
2022-10-12T22:09:19.130Z,98736.91
2022-10-12T22:12:21.890Z,98738.78
2022-10-12T22:15:24.499Z,98734.47
2022-10-12T22:18:28.534Z,98734.22
2022-10-12T22:21:31.547Z,98728.53
2022-10-12T22:24:34.206Z,98732.31
2022-10-12T22:27:36.941Z,98728.28
2022-10-12T22:30:40.140Z,98739.00
2022-10-12T22:33:44.463Z,98740.34
2022-10-12T22:36:47.476Z,98731.50
2022-10-12T22:39:50.143Z,98735.50
2022-10-12T22:42:52.995Z,98725.53
2022-10-12T22:45:56.489Z,98723.94
2022-10-12T22:49:00.729Z,98727.16
2022-10-12T22:52:03.332Z,98730.38
2022-10-12T22:55:06.769Z,98729.31
2022-10-12T22:58:09.762Z,98724.19
2022-10-12T23:01:14.853Z,98726.59
2022-10-12T23:04:20.538Z,98723.91
2022-10-12T23:07:23.581Z,98726.34
2022-10-12T23:10:27.133Z,98722.28
2022-10-12T23:13:29.769Z,98715.03
2022-10-12T23:16:33.779Z,98708.84
2022-10-12T23:19:37.978Z,98714.19
2022-10-12T23:22:40.597Z,98713.94
2022-10-12T23:25:43.270Z,98706.69
2022-10-12T23:28:46.377Z,98708.28
2022-10-12T23:31:49.026Z,98702.91
2022-10-12T23:34:53.015Z,98710.69
2022-10-12T23:37:55.678Z,98709.09
2022-10-12T23:40:58.629Z,98720.91
2022-10-12T23:44:01.273Z,98716.34
2022-10-12T23:47:03.903Z,98719.03
2022-10-12T23:50:08.423Z,98719.81
2022-10-12T23:53:11.450Z,98726.50
2022-10-12T23:56:14.357Z,98730.75
2022-10-12T23:59:17.010Z,98723.81
